Time;durP1;ratioP1;P1;durP2;ratioP2;P2;SDS_P1;SDS_P2;PMS_P1;PMS_P2;Temp;Humidity;BMP_temperature;BMP_pressure;BME280_temperature;BME280_humidity;BME280_pressure;Samples;Min_cycle;Max_cycle;Signal;HPM_P1;HPM_P2
2024/02/19 01:21:45;;;;;;;4.30;2.10;;;;;;;0.09;78.39;100363.61;80592;1304;3016137;-75
2024/02/19 01:24:13;;;;;;;2.90;1.70;;;;;;;0.08;77.68;100366.89;79553;1301;3011617;-74
2024/02/19 01:26:42;;;;;;;3.30;2.00;;;;;;;-0.01;77.44;100365.52;77958;1307;3048743;-76
2024/02/19 01:29:09;;;;;;;1.90;1.40;;;;;;;-0.05;77.99;100367.95;79189;1303;3013201;-75
2024/02/19 01:31:35;;;;;;;2.40;1.60;;;;;;;-0.02;77.90;100366.22;79191;1307;3011828;-76
2024/02/19 01:34:04;;;;;;;2.40;1.80;;;;;;;-0.08;77.82;100376.75;77638;1298;3474918;-76
2024/02/19 01:36:34;;;;;;;2.70;1.70;;;;;;;-0.00;77.77;100376.71;79468;1298;3013133;-75
2024/02/19 01:39:02;;;;;;;3.30;1.50;;;;;;;-0.02;77.83;100375.18;78307;1299;3051944;-76
2024/02/19 01:41:29;;;;;;;2.50;1.60;;;;;;;-0.01;77.71;100375.70;79597;1300;3013189;-75
2024/02/19 01:43:57;;;;;;;3.10;1.80;;;;;;;0.03;77.35;100376.04;79571;1300;3011865;-75
2024/02/19 01:46:25;;;;;;;2.20;1.50;;;;;;;0.03;77.52;100373.80;78432;1294;3069158;-75
2024/02/19 01:48:53;;;;;;;2.70;1.50;;;;;;;-0.03;77.31;100378.28;79577;1300;3013041;-74
2024/02/19 01:51:22;;;;;;;2.60;1.60;;;;;;;-0.07;77.18;100382.09;79477;1295;3013270;-74
2024/02/19 01:53:51;;;;;;;4.30;1.30;;;;;;;-0.11;77.14;100382.61;78248;1300;3052296;-75
2024/02/19 01:56:20;;;;;;;2.70;1.60;;;;;;;-0.19;77.48;100383.65;79490;1299;3012870;-74
2024/02/19 01:58:46;;;;;;;3.30;1.90;;;;;;;-0.23;77.59;100385.91;79555;1295;3011676;-75
2024/02/19 02:01:15;;;;;;;4.00;1.80;;;;;;;-0.09;77.60;100381.23;78245;1295;3068411;-75
2024/02/19 02:03:42;;;;;;;2.70;1.50;;;;;;;0.01;77.04;100382.75;79450;1295;3013020;-76
2024/02/19 02:06:09;;;;;;;3.80;1.90;;;;;;;0.06;76.60;100383.94;79613;1295;3012762;-75
2024/02/19 02:08:40;;;;;;;3.30;1.60;;;;;;;0.03;76.51;100386.89;78339;1298;3053383;-75
2024/02/19 02:11:06;;;;;;;3.70;1.90;;;;;;;0.00;76.57;100384.48;80313;1295;3011948;-75
2024/02/19 02:13:36;;;;;;;3.80;1.90;;;;;;;0.03;76.79;100387.23;79251;1298;3011533;-75
2024/02/19 02:16:05;;;;;;;3.70;1.80;;;;;;;0.11;77.01;100391.34;79536;1299;3011868;-72
2024/02/19 02:18:31;;;;;;;2.70;1.70;;;;;;;0.05;76.54;100389.29;79636;1294;3012972;-79
2024/02/19 02:20:59;;;;;;;3.10;1.90;;;;;;;-0.05;76.37;100392.41;78365;1297;3057478;-78
2024/02/19 02:23:26;;;;;;;2.90;1.50;;;;;;;-0.03;76.29;100390.17;79704;1294;3018334;-76
2024/02/19 02:25:53;;;;;;;3.10;1.70;;;;;;;-0.06;76.14;100387.42;79562;1298;3011602;-76
2024/02/19 02:28:22;;;;;;;3.30;1.80;;;;;;;0.09;75.86;100388.76;78354;1297;3051820;-75
2024/02/19 02:30:49;;;;;;;3.40;2.10;;;;;;;0.05;75.67;100391.89;79576;1294;3018698;-75
2024/02/19 02:33:18;;;;;;;2.10;1.40;;;;;;;0.09;75.48;100386.86;79692;1297;3011718;-78
2024/02/19 02:35:46;;;;;;;4.60;1.90;;;;;;;-0.00;75.93;100389.30;78498;1297;3056461;-76
2024/02/19 02:38:12;;;;;;;4.10;2.00;;;;;;;0.05;76.34;100391.36;79588;1294;3013150;-75
2024/02/19 02:40:39;;;;;;;5.70;2.30;;;;;;;0.05;76.04;100391.01;79649;1295;3011660;-76
2024/02/19 02:43:07;;;;;;;4.40;2.00;;;;;;;0.03;75.83;100391.02;78410;1297;3026655;-76
2024/02/19 02:45:33;;;;;;;4.60;2.00;;;;;;;-0.06;75.14;100394.65;79676;1295;3018447;-74
2024/02/19 02:48:00;;;;;;;3.70;1.80;;;;;;;-0.11;75.63;100404.66;79489;1300;3011550;-73
2024/02/19 02:50:29;;;;;;;6.00;1.80;;;;;;;-0.06;75.49;100398.27;78394;1294;3025893;-73
2024/02/19 02:52:56;;;;;;;4.80;2.40;;;;;;;-0.06;75.52;100398.79;79549;1294;3013575;-74
2024/02/19 02:55:23;;;;;;;3.30;1.80;;;;;;;-0.13;75.80;100404.48;79673;1294;3012860;-76
2024/02/19 02:57:53;;;;;;;5.00;2.10;;;;;;;-0.19;74.92;100403.13;78442;1297;3052353;-75
2024/02/19 03:00:20;;;;;;;3.40;1.70;;;;;;;-0.26;74.51;100405.53;79542;1298;3011638;-73
2024/02/19 03:02:47;;;;;;;3.90;2.40;;;;;;;-0.15;74.21;100404.32;79637;1294;3013106;-73
2024/02/19 03:05:16;;;;;;;6.00;2.20;;;;;;;-0.21;74.33;100409.65;78417;1297;3055680;-74
2024/02/19 03:07:43;;;;;;;3.50;1.80;;;;;;;-0.23;74.20;100406.40;79633;1297;3013252;-75
2024/02/19 03:10:11;;;;;;;2.90;2.00;;;;;;;-0.12;74.41;100410.34;79581;1295;3012977;-76
2024/02/19 03:12:39;;;;;;;4.10;2.10;;;;;;;0.00;74.20;100408.25;78359;1297;3052129;-74
2024/02/19 03:15:07;;;;;;;3.60;2.10;;;;;;;0.05;73.95;100405.64;79599;1297;3013443;-75
2024/02/19 03:17:34;;;;;;;3.10;1.70;;;;;;;0.11;73.59;100405.13;79641;1295;3012606;-77
2024/02/19 03:20:05;;;;;;;7.00;2.20;;;;;;;0.13;73.41;100403.39;78431;1295;3056014;-77
2024/02/19 03:22:31;;;;;;;8.40;2.90;;;;;;;0.07;72.99;100406.16;79730;1293;3012986;-76
2024/02/19 03:24:59;;;;;;;6.60;2.70;;;;;;;0.07;72.96;100400.83;78408;1297;3025848;-76
2024/02/19 03:27:26;;;;;;;7.90;2.80;;;;;;;0.09;72.84;100404.09;79609;1296;3018482;-76
2024/02/19 03:29:52;;;;;;;5.30;2.60;;;;;;;0.11;72.22;100402.02;79656;1297;3011250;-76
2024/02/19 03:32:20;;;;;;;7.00;2.70;;;;;;;-0.02;71.99;100409.30;78362;1295;3028466;-77
2024/02/19 03:34:48;;;;;;;4.40;2.30;;;;;;;0.03;72.07;100408.92;79644;1295;3013877;-77
2024/02/19 03:37:15;;;;;;;4.90;2.70;;;;;;;-0.04;72.21;100410.33;79636;1295;3013131;-75
2024/02/19 03:39:44;;;;;;;5.10;2.60;;;;;;;-0.03;71.91;100406.88;78474;1296;3052841;-75
2024/02/19 03:42:11;;;;;;;6.80;2.70;;;;;;;-0.04;72.30;100403.77;79791;1294;3013433;-73
2024/02/19 03:44:39;;;;;;;4.40;2.50;;;;;;;0.01;72.57;100402.40;80633;1296;3011461;-76
2024/02/19 03:47:07;;;;;;;5.00;2.40;;;;;;;-0.01;72.28;100409.29;78385;1295;3069077;-74
2024/02/19 03:49:34;;;;;;;5.90;2.80;;;;;;;-0.02;72.32;100406.70;79467;1295;3018271;-75
2024/02/19 03:52:02;;;;;;;5.60;2.20;;;;;;;0.01;72.24;100406.00;79472;1299;3013190;-75
2024/02/19 03:54:30;;;;;;;7.70;3.00;;;;;;;0.12;71.99;100404.42;78362;1295;3053211;-77
2024/02/19 03:56:57;;;;;;;4.50;2.40;;;;;;;0.10;72.09;100405.97;79787;1298;3018876;-78
2024/02/19 03:59:24;;;;;;;4.50;2.60;;;;;;;0.04;71.99;100407.20;79625;1299;3011423;-75
2024/02/19 04:01:52;;;;;;;6.90;3.40;;;;;;;-0.04;71.90;100409.30;78427;1300;3025670;-76
2024/02/19 04:04:20;;;;;;;6.80;3.30;;;;;;;-0.06;72.07;100408.42;79699;1295;3013240;-75
2024/02/19 04:06:47;;;;;;;7.80;3.10;;;;;;;0.01;71.78;100406.02;79644;1294;3013452;-75
2024/02/19 04:09:15;;;;;;;10.70;5.10;;;;;;;-0.01;71.64;100407.05;78303;1299;3054508;-76
2024/02/19 04:11:44;;;;;;;15.10;6.50;;;;;;;0.06;71.60;100411.34;79772;1300;3013163;-77
2024/02/19 04:14:13;;;;;;;20.50;6.00;;;;;;;0.08;71.13;100415.47;79044;1299;3012974;-76
2024/02/19 04:16:43;;;;;;;27.00;7.50;;;;;;;0.08;71.05;100416.67;79638;1299;3013480;-78
2024/02/19 04:19:12;;;;;;;18.70;5.40;;;;;;;0.05;71.00;100418.58;79056;1295;3011923;-78
2024/02/19 04:21:44;;;;;;;17.90;6.00;;;;;;;0.06;70.73;100419.60;79640;1298;3014118;-77
2024/02/19 04:24:13;;;;;;;16.80;6.90;;;;;;;-0.01;70.45;100421.00;78358;1294;3049448;-72
2024/02/19 04:26:40;;;;;;;13.10;6.20;;;;;;;0.02;70.77;100421.17;79646;1295;3011633;-73
2024/02/19 04:29:11;;;;;;;11.30;5.00;;;;;;;-0.01;70.61;100423.59;79123;1299;3013582;-75
2024/02/19 04:31:38;;;;;;;11.00;4.20;;;;;;;0.01;70.75;100424.96;79500;1300;3013531;-75
2024/02/19 04:34:06;;;;;;;6.70;3.80;;;;;;;0.02;70.76;100423.40;79582;1302;3011943;-73
2024/02/19 04:36:34;;;;;;;10.70;4.70;;;;;;;0.01;70.72;100423.91;78285;1294;3050960;-76
2024/02/19 04:39:02;;;;;;;9.40;4.10;;;;;;;0.09;70.52;100429.23;79683;1297;3011695;-73
2024/02/19 04:41:33;;;;;;;9.20;5.40;;;;;;;0.14;70.40;100431.13;78453;1295;3052676;-73
2024/02/19 04:43:59;;;;;;;6.80;3.60;;;;;;;0.04;69.40;100435.11;79632;1298;3018989;-75
2024/02/19 04:46:27;;;;;;;5.60;3.40;;;;;;;0.04;69.30;100437.52;79433;1301;3011362;-75
2024/02/19 04:48:58;;;;;;;7.50;3.30;;;;;;;0.07;69.34;100444.23;78368;1300;3070080;-73
2024/02/19 04:51:25;;;;;;;6.20;2.50;;;;;;;0.13;69.70;100440.95;79658;1295;3012997;-73
2024/02/19 04:53:54;;;;;;;3.50;2.10;;;;;;;0.22;69.79;100446.10;79089;1295;3013652;-76
2024/02/19 04:56:21;;;;;;;4.10;2.40;;;;;;;0.01;70.10;100447.17;79734;1294;3018288;-75
2024/02/19 04:58:48;;;;;;;3.70;2.10;;;;;;;-0.17;71.00;100448.92;79517;1295;3011677;-75
2024/02/19 05:01:16;;;;;;;4.00;2.10;;;;;;;-0.26;70.91;100453.41;78484;1298;3026099;-75
2024/02/19 05:03:42;;;;;;;7.30;2.30;;;;;;;-0.29;71.38;100457.89;79621;1300;3013316;-75
2024/02/19 05:06:09;;;;;;;5.40;2.70;;;;;;;-0.28;71.45;100456.33;79552;1295;3011584;-73
2024/02/19 05:08:37;;;;;;;5.70;2.60;;;;;;;-0.36;71.61;100458.91;78361;1298;3025895;-76
2024/02/19 05:11:04;;;;;;;6.00;3.40;;;;;;;-0.29;71.31;100460.63;79682;1299;3011652;-76
2024/02/19 05:13:36;;;;;;;4.60;2.60;;;;;;;-0.24;71.14;100459.25;79637;1300;3011683;-75
2024/02/19 05:16:06;;;;;;;16.10;3.20;;;;;;;-0.25;71.13;100466.67;78653;1301;3054463;-74
2024/02/19 05:18:32;;;;;;;5.70;2.30;;;;;;;-0.23;71.08;100465.11;80363;1298;3011755;-76
2024/02/19 05:21:00;;;;;;;6.80;3.20;;;;;;;-0.29;70.92;100467.02;79624;1297;3011753;-77
2024/02/19 05:23:32;;;;;;;6.30;3.30;;;;;;;-0.26;71.29;100468.91;78255;1295;3054937;-73
2024/02/19 05:25:59;;;;;;;4.70;2.50;;;;;;;-0.14;70.95;100466.48;79627;1297;3011528;-76
2024/02/19 05:28:28;;;;;;;11.30;3.20;;;;;;;-0.12;70.82;100468.90;78417;1299;3025550;-72
2024/02/19 05:30:56;;;;;;;5.70;3.00;;;;;;;-0.06;70.50;100468.73;79626;1301;3013754;-76
2024/02/19 05:33:28;;;;;;;5.20;2.60;;;;;;;-0.07;70.30;100467.17;78447;1298;3050845;-74
2024/02/19 05:35:54;;;;;;;7.60;3.30;;;;;;;-0.08;70.82;100465.11;79561;1300;3013322;-75
2024/02/19 05:38:21;;;;;;;4.40;2.70;;;;;;;0.08;70.71;100465.08;79595;1295;3011849;-76
2024/02/19 05:40:49;;;;;;;8.40;3.20;;;;;;;0.06;69.85;100465.95;78459;1299;3050251;-74
2024/02/19 05:43:15;;;;;;;7.50;3.40;;;;;;;0.04;70.06;100463.88;79681;1298;3012870;-77
2024/02/19 05:45:42;;;;;;;6.50;3.80;;;;;;;0.07;69.83;100458.20;79715;1307;3011475;-75
2024/02/19 05:48:10;;;;;;;7.90;4.00;;;;;;;0.00;69.67;100463.71;78487;1294;3027510;-74
2024/02/19 05:50:38;;;;;;;8.40;3.90;;;;;;;0.01;69.71;100466.48;79701;1299;3013247;-75
2024/02/19 05:53:06;;;;;;;8.50;4.20;;;;;;;0.21;68.93;100471.26;79653;1295;3011637;-75
2024/02/19 05:55:34;;;;;;;6.60;3.50;;;;;;;0.21;68.52;100475.05;78471;1300;3049231;-74
2024/02/19 05:58:01;;;;;;;5.80;2.90;;;;;;;0.27;68.40;100475.39;79736;1298;3013182;-76
2024/02/19 06:00:29;;;;;;;7.20;4.00;;;;;;;0.22;68.84;100477.80;79589;1300;3011924;-77
2024/02/19 06:03:03;;;;;;;14.10;5.00;;;;;;;0.18;69.08;100476.26;78407;1308;3050784;-70
2024/02/19 06:05:30;;;;;;;16.40;6.40;;;;;;;0.28;69.17;100481.59;79697;1295;3011482;-72
2024/02/19 06:07:57;;;;;;;23.20;8.10;;;;;;;0.37;68.97;100482.77;78511;1296;3051212;-73
2024/02/19 06:10:24;;;;;;;14.40;6.20;;;;;;;0.39;69.34;100476.56;79791;1296;3012788;-68
2024/02/19 06:12:52;;;;;;;11.00;4.50;;;;;;;0.40;69.07;100480.02;79473;1299;3011582;-73
2024/02/19 06:15:24;;;;;;;6.70;4.10;;;;;;;0.45;69.33;100481.20;78474;1299;3050649;-73
2024/02/19 06:17:51;;;;;;;7.10;3.60;;;;;;;0.47;68.93;100479.98;79558;1300;3013472;-74
2024/02/19 06:20:19;;;;;;;5.50;3.00;;;;;;;0.48;68.88;100477.39;78427;1298;3026329;-71
2024/02/19 06:22:46;;;;;;;6.00;3.10;;;;;;;0.31;68.53;100479.68;79661;1300;3012652;-73
2024/02/19 06:25:14;;;;;;;5.90;2.60;;;;;;;0.28;69.05;100479.52;79699;1300;3012927;-71
2024/02/19 06:27:42;;;;;;;5.00;2.70;;;;;;;0.36;68.84;100477.95;78396;1298;3047794;-72
2024/02/19 06:30:09;;;;;;;3.40;1.90;;;;;;;0.41;68.45;100477.24;79790;1301;3019182;-78
2024/02/19 06:32:36;;;;;;;4.60;2.60;;;;;;;0.53;68.41;100477.38;79669;1301;3011633;-74
2024/02/19 06:35:04;;;;;;;4.10;2.30;;;;;;;0.52;67.61;100479.97;80368;1295;3026516;-72
2024/02/19 06:37:31;;;;;;;5.30;2.20;;;;;;;0.61;68.07;100477.87;79690;1296;3014066;-74
2024/02/19 06:39:58;;;;;;;4.30;2.40;;;;;;;0.58;67.31;100477.19;79706;1295;3012943;-70
2024/02/19 06:42:25;;;;;;;3.10;2.10;;;;;;;0.57;67.30;100482.02;78483;1308;3048963;-69
2024/02/19 06:44:52;;;;;;;4.10;2.20;;;;;;;0.54;66.75;100480.30;79985;1299;3012606;-72
2024/02/19 06:47:19;;;;;;;3.80;2.10;;;;;;;0.59;66.70;100486.33;79717;1300;3011600;-72
2024/02/19 06:49:47;;;;;;;4.40;2.00;;;;;;;0.55;66.33;100480.83;78899;1298;3026648;-69
2024/02/19 06:52:14;;;;;;;7.00;2.40;;;;;;;0.68;66.24;100485.43;80144;1299;3013379;-74
2024/02/19 06:54:40;;;;;;;5.90;2.40;;;;;;;0.59;65.63;100483.05;79536;1297;3013657;-75
2024/02/19 06:57:08;;;;;;;4.00;2.10;;;;;;;0.71;65.92;100484.20;78287;1298;3026636;-69
2024/02/19 06:59:35;;;;;;;4.20;2.20;;;;;;;0.77;65.24;100485.06;79747;1295;3013143;-74
2024/02/19 07:02:02;;;;;;;3.70;2.00;;;;;;;0.77;64.59;100487.30;79593;1298;3011336;-74
2024/02/19 07:04:34;;;;;;;4.00;2.00;;;;;;;0.80;64.41;100488.67;78473;1298;3028832;-71
2024/02/19 07:07:01;;;;;;;4.70;1.90;;;;;;;0.81;64.07;100487.10;79568;1299;3013391;-72
2024/02/19 07:09:29;;;;;;;2.90;1.60;;;;;;;0.81;63.40;100488.48;78392;1298;3026222;-77
2024/02/19 07:11:55;;;;;;;3.70;1.60;;;;;;;0.87;63.08;100487.77;79723;1295;3013129;-71
2024/02/19 07:14:22;;;;;;;3.80;1.80;;;;;;;0.88;62.83;100485.19;79694;1295;3013388;-69
2024/02/19 07:16:50;;;;;;;3.90;1.90;;;;;;;0.77;62.51;100482.46;78416;1300;3028602;-68
2024/02/19 07:19:17;;;;;;;3.60;1.80;;;;;;;0.90;62.15;100484.30;79697;1308;3018895;-71
2024/02/19 07:21:43;;;;;;;3.10;1.80;;;;;;;0.97;61.70;100486.00;79647;1294;3011617;-73
2024/02/19 07:24:11;;;;;;;4.70;2.30;;;;;;;1.03;61.57;100480.10;78456;1295;3028768;-73
2024/02/19 07:26:37;;;;;;;3.50;1.50;;;;;;;1.11;61.24;100482.83;79698;1298;3013372;-71
2024/02/19 07:29:04;;;;;;;3.60;1.70;;;;;;;1.19;60.44;100481.39;79464;1300;3013134;-74
2024/02/19 07:31:32;;;;;;;4.50;1.70;;;;;;;1.30;59.81;100480.64;78444;1298;3028014;-72
2024/02/19 07:33:59;;;;;;;3.70;1.60;;;;;;;1.39;59.08;100484.71;79647;1301;3015243;-71
2024/02/19 07:36:25;;;;;;;4.60;1.70;;;;;;;1.34;59.20;100485.97;79635;1298;3011598;-68
2024/02/19 07:38:53;;;;;;;4.20;1.60;;;;;;;1.29;58.61;100486.69;78430;1294;3026724;-69
2024/02/19 07:41:21;;;;;;;4.40;1.80;;;;;;;1.27;59.04;100485.48;79653;1296;3013366;-73
2024/02/19 07:43:49;;;;;;;3.30;1.50;;;;;;;1.16;58.39;100488.83;79647;1295;3011769;-68
2024/02/19 07:46:18;;;;;;;2.70;1.50;;;;;;;1.12;58.00;100489.89;78572;1295;3049344;-73
2024/02/19 07:48:45;;;;;;;3.70;1.10;;;;;;;1.36;57.68;100493.37;80092;1300;3012819;-69
2024/02/19 07:51:14;;;;;;;3.40;1.30;;;;;;;1.48;56.81;100491.04;79723;1301;3011587;-70
2024/02/19 07:53:42;;;;;;;2.00;1.10;;;;;;;1.57;56.04;100491.51;78476;1298;3050312;-73
2024/02/19 07:56:10;;;;;;;4.10;1.60;;;;;;;1.64;56.20;100483.50;79895;1295;3013493;-68
2024/02/19 07:58:36;;;;;;;2.60;1.40;;;;;;;1.65;55.49;100488.69;79617;1301;3013515;-72
2024/02/19 08:01:04;;;;;;;2.60;1.60;;;;;;;1.79;56.60;100490.13;78403;1296;3049714;-66
2024/02/19 08:03:31;;;;;;;2.60;1.60;;;;;;;1.80;55.56;100484.92;79545;1300;3013529;-70
2024/02/19 08:05:58;;;;;;;4.40;1.30;;;;;;;1.92;55.50;100485.88;79717;1294;3011470;-74
2024/02/19 08:08:28;;;;;;;3.00;1.40;;;;;;;1.87;54.64;100493.52;78467;1295;3026009;-75
2024/02/19 08:10:55;;;;;;;3.20;1.50;;;;;;;1.86;54.29;100488.86;79950;1294;3011967;-71
2024/02/19 08:13:22;;;;;;;3.60;1.10;;;;;;;2.11;54.70;100487.93;79728;1295;3013483;-73
2024/02/19 08:15:50;;;;;;;3.90;1.30;;;;;;;2.21;53.55;100487.33;78441;1298;3048297;-73
2024/02/19 08:18:19;;;;;;;3.80;1.60;;;;;;;2.21;52.42;100490.61;79709;1299;3012893;-72
2024/02/19 08:20:46;;;;;;;4.50;2.10;;;;;;;2.00;53.12;100488.73;79816;1295;3012090;-73
2024/02/19 08:23:14;;;;;;;3.80;1.70;;;;;;;2.16;52.94;100485.80;78625;1300;3051448;-74
2024/02/19 08:25:42;;;;;;;3.70;2.00;;;;;;;2.26;52.00;100493.16;79913;1294;3011448;-72
2024/02/19 08:28:10;;;;;;;2.60;1.50;;;;;;;2.20;51.79;100495.81;79602;1309;3013447;-74
2024/02/19 08:30:38;;;;;;;4.60;1.70;;;;;;;2.23;51.85;100494.05;78413;1300;3049691;-74
2024/02/19 08:33:05;;;;;;;6.00;1.80;;;;;;;2.41;51.50;100496.29;79660;1299;3013255;-74
2024/02/19 08:35:33;;;;;;;2.60;1.60;;;;;;;2.37;49.91;100495.64;79662;1299;3012495;-77
2024/02/19 08:38:01;;;;;;;2.80;1.50;;;;;;;2.45;49.76;100494.85;78626;1294;3050336;-74
2024/02/19 08:40:27;;;;;;;3.60;1.30;;;;;;;2.42;48.65;100497.65;79749;1294;3021147;-74
2024/02/19 08:42:54;;;;;;;2.00;1.10;;;;;;;2.41;47.94;100500.62;79694;1296;3013103;-74
2024/02/19 08:45:22;;;;;;;1.40;0.90;;;;;;;2.23;46.54;100504.08;78521;1299;3026061;-73
2024/02/19 08:47:48;;;;;;;1.10;0.70;;;;;;;2.08;46.29;100500.23;79699;1298;3013431;-74
2024/02/19 08:50:15;;;;;;;1.30;0.80;;;;;;;2.24;47.07;100504.23;79718;1300;3013522;-75
2024/02/19 08:52:43;;;;;;;2.70;1.40;;;;;;;2.27;46.67;100503.17;78630;1295;3025777;-70
2024/02/19 08:55:10;;;;;;;2.30;1.30;;;;;;;2.11;46.73;100504.71;79744;1295;3013540;-72
2024/02/19 08:57:37;;;;;;;3.70;1.40;;;;;;;2.08;46.97;100498.69;79766;1294;3011647;-73
2024/02/19 09:00:08;;;;;;;3.20;1.20;;;;;;;2.18;46.86;100506.55;78573;1298;3028373;-75
2024/02/19 09:02:35;;;;;;;4.40;1.60;;;;;;;2.21;46.19;100505.65;79679;1294;3011594;-75
2024/02/19 09:05:03;;;;;;;4.00;1.70;;;;;;;2.18;45.68;100504.13;78483;1298;3027324;-74
2024/02/19 09:07:31;;;;;;;4.00;1.50;;;;;;;2.24;45.50;100504.41;79632;1299;3013581;-73
2024/02/19 09:09:58;;;;;;;2.40;1.10;;;;;;;2.40;45.89;100504.24;79711;1295;3011543;-76
2024/02/19 09:12:26;;;;;;;2.20;1.10;;;;;;;2.46;44.29;100504.19;78708;1297;3050087;-73
2024/02/19 09:14:58;;;;;;;3.00;1.10;;;;;;;2.34;43.87;100499.80;79643;1299;3013855;-75
2024/02/19 09:17:26;;;;;;;1.90;1.20;;;;;;;1.86;43.03;100507.52;78573;1300;3053147;-76
2024/02/19 09:19:52;;;;;;;2.10;0.90;;;;;;;1.91;42.73;100504.35;79708;1298;3013371;-72
2024/02/19 09:22:19;;;;;;;1.20;0.80;;;;;;;2.05;43.42;100504.77;79864;1298;3011403;-72
2024/02/19 09:24:50;;;;;;;2.20;1.00;;;;;;;1.95;43.08;100506.05;78560;1294;3025890;-76
2024/02/19 09:27:17;;;;;;;2.20;0.90;;;;;;;2.05;43.32;100503.02;79819;1295;3012298;-76
2024/02/19 09:29:46;;;;;;;1.50;1.00;;;;;;;2.14;42.50;100500.19;79034;1298;3011503;-75
2024/02/19 09:32:13;;;;;;;2.60;1.10;;;;;;;2.01;42.25;100499.95;79574;1299;3012987;-73
2024/02/19 09:34:41;;;;;;;3.60;1.20;;;;;;;1.93;42.69;100498.99;79638;1298;3011900;-73
2024/02/19 09:37:09;;;;;;;3.80;1.20;;;;;;;1.92;42.38;100496.23;78431;1295;3070157;-71
2024/02/19 09:39:38;;;;;;;2.10;1.20;;;;;;;1.65;42.97;100497.30;79758;1294;3012987;-71
2024/02/19 09:42:08;;;;;;;2.70;1.30;;;;;;;1.64;43.05;100496.63;79258;1301;3013363;-72
2024/02/19 09:44:35;;;;;;;2.20;1.20;;;;;;;1.39;42.97;100504.05;79592;1295;3012799;-74
2024/02/19 09:47:03;;;;;;;1.60;0.60;;;;;;;1.25;43.54;100502.58;79542;1295;3011642;-74
2024/02/19 09:49:31;;;;;;;1.30;0.90;;;;;;;1.20;43.13;100500.36;78450;1300;3051901;-76
2024/02/19 09:52:00;;;;;;;7.70;1.30;;;;;;;1.32;43.18;100505.31;79564;1296;3015235;-72
2024/02/19 09:54:28;;;;;;;1.40;0.90;;;;;;;1.53;44.20;100510.52;79644;1299;3011576;-75
2024/02/19 09:56:57;;;;;;;1.80;0.80;;;;;;;1.58;44.14;100502.71;78764;1295;3056554;-77
2024/02/19 09:59:24;;;;;;;1.50;0.90;;;;;;;1.70;44.54;100500.90;79623;1300;3012877;-75
2024/02/19 10:01:50;;;;;;;1.90;1.00;;;;;;;1.75;44.36;100500.36;79557;1295;3014098;-77
2024/02/19 10:04:20;;;;;;;1.00;0.70;;;;;;;1.93;44.19;100504.69;78415;1300;3051279;-74
2024/02/19 10:06:47;;;;;;;1.60;0.80;;;;;;;2.12;43.74;100497.77;79610;1298;3011900;-74
2024/02/19 10:09:16;;;;;;;1.00;0.60;;;;;;;2.42;43.20;100493.86;79226;1295;3011649;-74
2024/02/19 10:11:47;;;;;;;2.00;0.80;;;;;;;2.60;43.17;100492.80;79696;1299;3013545;-77
2024/02/19 10:14:15;;;;;;;1.50;0.90;;;;;;;2.71;42.71;100489.19;78381;1300;3049533;-75
2024/02/19 10:16:51;;;;;;;1.10;0.70;;;;;;;2.96;42.84;100489.74;79674;1295;3013880;-75
2024/02/19 10:19:19;;;;;;;2.30;1.10;;;;;;;3.00;42.32;100491.27;78606;1295;3052199;-75
2024/02/19 10:21:48;;;;;;;2.30;1.20;;;;;;;2.89;42.72;100490.03;79752;1294;3013703;-78
2024/02/19 10:24:16;;;;;;;2.10;1.30;;;;;;;3.08;42.14;100480.09;79722;1298;3012427;-76
2024/02/19 10:26:49;;;;;;;1.40;1.00;;;;;;;3.29;42.26;100482.38;78511;1295;3057229;-75
2024/02/19 10:29:18;;;;;;;1.80;1.00;;;;;;;3.53;41.99;100482.03;79748;1295;3011495;-75
2024/02/19 10:31:46;;;;;;;2.70;1.40;;;;;;;3.52;41.66;100482.03;78555;1295;3053559;-76
2024/02/19 10:34:15;;;;;;;2.00;1.00;;;;;;;3.39;42.08;100477.05;79782;1297;3013193;-76
2024/02/19 10:36:45;;;;;;;2.40;1.20;;;;;;;3.30;42.14;100486.52;79265;1298;3013575;-74
2024/02/19 10:39:12;;;;;;;3.00;1.20;;;;;;;3.30;42.63;100479.25;79919;1297;3013167;-77
2024/02/19 10:41:39;;;;;;;1.70;1.20;;;;;;;3.44;42.70;100476.27;79616;1294;3011500;-76
2024/02/19 10:44:06;;;;;;;3.50;1.40;;;;;;;3.34;43.13;100478.33;78459;1299;3057108;-74
2024/02/19 10:46:33;;;;;;;2.90;1.10;;;;;;;3.22;42.26;100472.63;79759;1295;3019626;-73
2024/02/19 10:49:00;;;;;;;2.50;1.20;;;;;;;3.37;42.32;100468.59;79657;1295;3011413;-76
2024/02/19 10:51:28;;;;;;;3.00;0.80;;;;;;;3.36;42.19;100466.17;78736;1300;3024992;-74
2024/02/19 10:53:59;;;;;;;3.10;1.00;;;;;;;3.30;42.01;100461.41;79768;1294;3013148;-73
2024/02/19 10:56:43;;;;;;;3.70;1.30;;;;;;;3.09;41.99;100458.08;78351;1299;3053049;-74
2024/02/19 10:59:11;;;;;;;1.90;1.10;;;;;;;3.05;42.06;100452.42;78413;1295;3056035;-73
2024/02/19 11:01:46;;;;;;;4.20;1.10;;;;;;;3.07;42.32;100447.73;79755;1300;3013005;-73
2024/02/19 11:04:14;;;;;;;2.40;1.20;;;;;;;3.06;42.79;100448.62;78464;1298;3050339;-76
2024/02/19 11:06:47;;;;;;;4.20;1.10;;;;;;;3.07;42.50;100449.28;79778;1298;3014749;-77
2024/02/19 11:09:16;;;;;;;6.20;2.70;;;;;;;3.14;42.27;100448.66;78413;1295;3069701;-76
2024/02/19 11:11:47;;;;;;;3.50;1.40;;;;;;;3.17;41.95;100447.23;79753;1298;3012707;-73
2024/02/19 11:14:25;;;;;;;4.10;1.30;;;;;;;2.95;42.49;100452.73;78584;1298;3050508;-76
2024/02/19 11:16:59;;;;;;;3.30;1.10;;;;;;;3.08;42.79;100453.23;78406;1299;3053226;-73
2024/02/19 11:19:27;;;;;;;3.00;1.10;;;;;;;2.97;43.00;100457.20;79744;1298;3011848;-76
2024/02/19 11:22:08;;;;;;;2.10;1.10;;;;;;;2.61;42.62;100455.59;78683;1300;3053496;-75
2024/02/19 11:24:36;;;;;;;3.30;1.30;;;;;;;2.23;43.17;100452.20;78342;1299;3053097;-74
2024/02/19 11:27:04;;;;;;;4.30;1.50;;;;;;;2.18;43.92;100451.91;79876;1295;3013275;-75
2024/02/19 11:29:32;;;;;;;3.70;1.90;;;;;;;2.30;43.91;100451.80;79796;1295;3011531;-74
2024/02/19 11:32:02;;;;;;;3.90;2.00;;;;;;;2.51;43.82;100451.55;78619;1300;3049915;-74
2024/02/19 11:34:29;;;;;;;8.30;3.70;;;;;;;2.48;43.65;100452.11;79715;1298;3013351;-76
2024/02/19 11:37:10;;;;;;;6.50;3.00;;;;;;;2.55;43.31;100449.94;79666;1297;3013561;-75
2024/02/19 11:39:39;;;;;;;8.40;3.30;;;;;;;2.79;42.72;100448.44;78426;1298;3051582;-74
2024/02/19 11:42:09;;;;;;;6.10;2.40;;;;;;;2.99;42.68;100446.98;79512;1295;3013582;-77
2024/02/19 11:44:37;;;;;;;4.20;1.30;;;;;;;3.07;42.07;100447.04;78379;1295;3056266;-78
2024/02/19 11:47:04;;;;;;;3.90;1.60;;;;;;;3.02;41.45;100448.66;79758;1298;3012703;-77
2024/02/19 11:49:31;;;;;;;8.80;3.70;;;;;;;3.28;41.38;100455.21;79508;1294;3011803;-77
2024/02/19 11:52:01;;;;;;;5.00;2.20;;;;;;;3.46;40.87;100450.27;78411;1299;3029047;-77
2024/02/19 11:54:29;;;;;;;3.00;1.50;;;;;;;3.63;41.08;100448.95;79578;1298;3013355;-74
2024/02/19 11:57:02;;;;;;;2.70;1.40;;;;;;;3.51;40.78;100445.34;78427;1295;3027217;-77
2024/02/19 11:59:29;;;;;;;2.40;1.10;;;;;;;3.57;40.55;100447.67;79875;1294;3011909;-76
2024/02/19 12:01:57;;;;;;;2.90;1.00;;;;;;;3.67;40.44;100446.63;78678;1294;3056598;-76
2024/02/19 12:04:25;;;;;;;2.30;1.20;;;;;;;3.61;40.52;100445.17;79745;1295;3013294;-74
2024/02/19 12:06:51;;;;;;;4.00;1.00;;;;;;;3.69;40.63;100446.07;79652;1295;3012949;-76
2024/02/19 12:09:19;;;;;;;5.30;1.40;;;;;;;3.67;40.37;100445.42;78514;1299;3026587;-74
2024/02/19 12:11:46;;;;;;;1.00;0.80;;;;;;;3.81;40.60;100446.39;79749;1298;3018558;-72
2024/02/19 12:14:13;;;;;;;4.50;1.10;;;;;;;3.98;39.92;100448.36;79764;1299;3011388;-78
2024/02/19 12:16:41;;;;;;;4.70;1.30;;;;;;;4.03;39.19;100443.07;78784;1295;3026174;-78
2024/02/19 12:19:08;;;;;;;2.80;1.60;;;;;;;4.01;38.58;100441.37;79825;1295;3018701;-76
2024/02/19 12:21:35;;;;;;;3.00;1.40;;;;;;;3.85;39.01;100435.92;79906;1295;3011780;-75
2024/02/19 12:24:06;;;;;;;5.60;1.50;;;;;;;3.84;39.56;100432.99;78648;1296;3051759;-74
2024/02/19 12:26:34;;;;;;;3.60;1.00;;;;;;;3.85;39.90;100433.33;79555;1297;3013038;-75
2024/02/19 12:29:02;;;;;;;1.80;0.90;;;;;;;3.81;39.58;100430.63;78316;1298;3028634;-75
2024/02/19 12:31:29;;;;;;;3.10;1.10;;;;;;;3.75;39.70;100428.99;79764;1294;3013203;-75
2024/02/19 12:33:56;;;;;;;4.10;1.00;;;;;;;3.60;39.88;100428.55;79546;1299;3011621;-73
2024/02/19 12:36:24;;;;;;;3.30;0.90;;;;;;;3.55;40.18;100424.98;78324;1300;3028356;-77
2024/02/19 12:38:52;;;;;;;2.00;1.10;;;;;;;3.42;40.03;100431.79;79658;1298;3018554;-73